createdAt,value
2023-03-25T00:00:30.893Z,87.65
2023-03-25T00:01:30.874Z,87.55
2023-03-25T00:02:30.884Z,87.65
2023-03-25T00:03:30.845Z,87.65
2023-03-25T00:04:30.883Z,87.34
2023-03-25T00:05:30.829Z,87.34
2023-03-25T00:06:30.838Z,87.24
2023-03-25T00:07:30.840Z,86.99
2023-03-25T00:08:30.816Z,86.99
2023-03-25T00:09:30.787Z,87.10
2023-03-25T00:10:30.827Z,86.99
2023-03-25T00:11:30.798Z,86.90
2023-03-25T00:12:30.773Z,86.90
2023-03-25T00:13:30.735Z,86.90
2023-03-25T00:14:30.742Z,86.90
2023-03-25T00:15:30.741Z,86.90
2023-03-25T00:16:30.790Z,86.90
2023-03-25T00:17:30.709Z,87.10
2023-03-25T00:18:30.709Z,87.20
2023-03-25T00:19:30.665Z,87.10
2023-03-25T00:20:30.722Z,87.10
2023-03-25T00:21:30.670Z,87.20
2023-03-25T00:22:30.694Z,87.85
2023-03-25T00:23:30.662Z,88.17
2023-03-25T00:24:30.629Z,87.85
2023-03-25T00:25:30.659Z,87.76
2023-03-25T00:26:30.643Z,88.06
2023-03-25T00:27:30.587Z,88.17
2023-03-25T00:28:30.615Z,87.96
2023-03-25T00:29:30.554Z,88.27
2023-03-25T00:30:30.590Z,88.47
2023-03-25T00:31:30.561Z,88.47
2023-03-25T00:32:30.567Z,88.27
2023-03-25T00:33:30.569Z,88.27
2023-03-25T00:34:30.517Z,88.37
2023-03-25T00:35:37.580Z,88.47
2023-03-25T00:36:30.503Z,88.47
2023-03-25T00:37:30.469Z,88.37
2023-03-25T00:38:30.496Z,88.37
2023-03-25T00:39:30.472Z,88.47
2023-03-25T00:40:30.446Z,88.47
2023-03-25T00:41:30.637Z,88.47
2023-03-25T00:42:30.436Z,88.68
2023-03-25T00:43:30.429Z,88.92
2023-03-25T00:44:30.414Z,89.03
2023-03-25T00:45:30.416Z,88.68
2023-03-25T00:46:30.425Z,88.78
2023-03-25T00:47:30.401Z,88.98
2023-03-25T00:48:30.406Z,89.03
2023-03-25T00:49:30.352Z,89.03
2023-03-25T00:50:30.334Z,89.03
2023-03-25T00:51:30.331Z,89.03
2023-03-25T00:52:30.417Z,89.23
2023-03-25T00:53:30.335Z,89.43
2023-03-25T00:54:30.317Z,89.43
2023-03-25T00:55:30.296Z,89.64
2023-03-25T00:56:30.288Z,89.75
2023-03-25T00:57:30.257Z,89.84
2023-03-25T00:58:30.245Z,90.05
2023-03-25T00:59:30.260Z,90.05
2023-03-25T01:00:30.212Z,90.05
2023-03-25T01:01:30.617Z,90.26
2023-03-25T01:02:30.232Z,90.26
2023-03-25T01:03:30.233Z,90.36
2023-03-25T01:04:30.216Z,90.36
2023-03-25T01:05:30.168Z,90.26
2023-03-25T01:06:30.146Z,90.46
2023-03-25T01:07:30.151Z,90.67
2023-03-25T01:08:30.347Z,90.56
2023-03-25T01:09:30.143Z,90.46
2023-03-25T01:10:30.170Z,90.46
2023-03-25T01:11:30.177Z,90.16
2023-03-25T01:12:30.219Z,90.26
2023-03-25T01:13:30.196Z,90.16
2023-03-25T01:14:30.202Z,90.26
2023-03-25T01:15:30.233Z,90.36
2023-03-25T01:16:30.250Z,90.26
2023-03-25T01:17:30.276Z,90.16
2023-03-25T01:18:30.209Z,89.84
2023-03-25T01:19:30.267Z,89.64
2023-03-25T01:20:30.271Z,89.43
2023-03-25T01:21:30.497Z,88.92
2023-03-25T01:22:30.232Z,88.92
2023-03-25T01:23:30.260Z,88.82
2023-03-25T01:24:30.282Z,88.82
2023-03-25T01:25:29.952Z,88.82
2023-03-25T01:26:29.954Z,88.51
2023-03-25T01:27:29.930Z,88.41
2023-03-25T01:28:29.911Z,88.00
2023-03-25T01:29:29.928Z,87.79
2023-03-25T01:30:29.876Z,87.79
2023-03-25T01:31:29.931Z,87.90
2023-03-25T01:32:29.909Z,87.90
2023-03-25T01:33:29.870Z,87.79
2023-03-25T01:34:29.894Z,87.70
2023-03-25T01:35:29.846Z,87.49
2023-03-25T01:36:29.850Z,87.38
2023-03-25T01:37:29.799Z,87.18
2023-03-25T01:38:29.780Z,87.28
2023-03-25T01:39:29.801Z,87.59
2023-03-25T01:40:29.794Z,87.49
2023-03-25T01:41:42.328Z,87.59
2023-03-25T01:42:30.733Z,87.70
2023-03-25T01:43:29.752Z,87.90
2023-03-25T01:44:29.728Z,87.79
2023-03-25T01:45:29.740Z,88.10
2023-03-25T01:46:29.737Z,88.00
2023-03-25T01:47:29.726Z,87.90
2023-03-25T01:48:29.710Z,88.10
2023-03-25T01:49:29.685Z,88.14
2023-03-25T01:50:29.680Z,88.10
2023-03-25T01:51:29.691Z,88.04
2023-03-25T01:52:29.841Z,88.04
2023-03-25T01:53:29.666Z,88.14
2023-03-25T01:54:29.617Z,88.04
2023-03-25T01:55:29.643Z,88.04
2023-03-25T01:56:29.603Z,87.84
2023-03-25T01:57:29.607Z,88.04
2023-03-25T01:58:29.586Z,87.94
2023-03-25T01:59:29.574Z,87.84
2023-03-25T02:00:29.602Z,87.73
2023-03-25T02:01:29.627Z,88.04
2023-03-25T02:02:29.545Z,88.04
2023-03-25T02:03:29.563Z,88.04
2023-03-25T02:04:29.507Z,88.14
2023-03-25T02:05:29.495Z,88.04
2023-03-25T02:06:29.507Z,88.04
2023-03-25T02:07:29.479Z,87.94
2023-03-25T02:08:29.465Z,87.94
2023-03-25T02:09:29.471Z,87.94
2023-03-25T02:10:29.430Z,87.84
2023-03-25T02:11:29.791Z,88.14
2023-03-25T02:12:29.456Z,88.04
2023-03-25T02:13:29.432Z,87.94
2023-03-25T02:14:29.393Z,88.14
2023-03-25T02:15:29.395Z,87.84
2023-03-25T02:16:29.404Z,87.63
2023-03-25T02:17:29.418Z,87.73
2023-03-25T02:18:29.350Z,87.73
2023-03-25T02:19:29.346Z,87.84
2023-03-25T02:20:29.351Z,87.94
2023-03-25T02:21:29.346Z,87.84
2023-03-25T02:22:29.319Z,87.94
2023-03-25T02:23:29.295Z,87.84
2023-03-25T02:24:29.286Z,87.84
2023-03-25T02:25:29.292Z,88.04
2023-03-25T02:26:29.273Z,88.04
2023-03-25T02:27:29.254Z,88.24
2023-03-25T02:28:29.284Z,88.45
2023-03-25T02:29:29.240Z,88.96
2023-03-25T02:30:29.230Z,89.27
2023-03-25T02:31:29.261Z,90.09
2023-03-25T02:32:29.221Z,90.24
2023-03-25T02:33:29.194Z,90.85
2023-03-25T02:34:29.201Z,91.57
2023-03-25T02:35:29.209Z,92.60
2023-03-25T02:36:29.143Z,93.46
2023-03-25T02:37:29.166Z,94.90
2023-03-25T02:38:29.135Z,95.42
2023-03-25T02:39:29.120Z,96.39
2023-03-25T02:40:29.107Z,96.90
2023-03-25T02:41:29.129Z,97.41
2023-03-25T02:42:29.096Z,98.03
2023-03-25T02:43:29.085Z,98.65
2023-03-25T02:44:29.076Z,98.79
2023-03-25T02:45:29.074Z,99.10
2023-03-25T02:46:29.116Z,99.21
2023-03-25T02:47:29.046Z,98.69
2023-03-25T02:48:29.007Z,98.90
2023-03-25T02:49:29.008Z,99.41
2023-03-25T02:50:28.999Z,99.21
2023-03-25T02:51:29.018Z,99.21
2023-03-25T02:52:29.014Z,99.10
2023-03-25T02:53:28.993Z,99.10
2023-03-25T02:54:28.962Z,98.38
2023-03-25T02:55:28.980Z,98.28
2023-03-25T02:56:28.965Z,98.38
2023-03-25T02:57:28.932Z,98.28
2023-03-25T02:58:28.917Z,98.28
2023-03-25T02:59:28.900Z,98.49
2023-03-25T03:00:28.907Z,98.24
2023-03-25T03:01:28.981Z,98.13
2023-03-25T03:02:28.953Z,98.13
2023-03-25T03:03:29.007Z,97.82
2023-03-25T03:04:28.832Z,97.92
2023-03-25T03:05:28.836Z,98.13
2023-03-25T03:06:28.832Z,98.44
2023-03-25T03:07:28.815Z,98.54
2023-03-25T03:08:28.783Z,98.44
2023-03-25T03:09:28.815Z,97.97
2023-03-25T03:10:29.170Z,97.82
2023-03-25T03:11:28.777Z,97.82
2023-03-25T03:12:28.768Z,97.62
2023-03-25T03:13:28.752Z,97.66
2023-03-25T03:14:28.720Z,97.20
2023-03-25T03:15:28.722Z,96.48
2023-03-25T03:16:28.761Z,96.18
2023-03-25T03:17:28.749Z,95.15
2023-03-25T03:18:28.779Z,95.15
2023-03-25T03:19:28.684Z,94.43
2023-03-25T03:20:28.679Z,93.77
2023-03-25T03:21:28.673Z,93.05
2023-03-25T03:22:28.650Z,93.67
2023-03-25T03:23:28.658Z,93.77
2023-03-25T03:24:28.614Z,93.51
2023-03-25T03:25:28.628Z,93.10
2023-03-25T03:26:28.581Z,92.74
2023-03-25T03:27:28.600Z,92.33
2023-03-25T03:28:28.560Z,92.44
2023-03-25T03:29:28.581Z,92.74
2023-03-25T03:30:28.612Z,93.05
2023-03-25T03:31:47.488Z,93.71
2023-03-25T03:32:29.558Z,93.20
2023-03-25T03:33:28.527Z,92.69
2023-03-25T03:34:28.510Z,92.69
2023-03-25T03:35:28.544Z,92.89
2023-03-25T03:36:28.483Z,92.38
2023-03-25T03:37:28.505Z,92.69
2023-03-25T03:38:28.457Z,92.69
2023-03-25T03:39:28.492Z,92.69
2023-03-25T03:40:28.430Z,92.58
2023-03-25T03:41:28.451Z,92.79
2023-03-25T03:42:28.428Z,92.99
2023-03-25T03:43:28.434Z,92.79
2023-03-25T03:44:28.408Z,91.97
2023-03-25T03:45:28.420Z,91.76
2023-03-25T03:46:28.513Z,91.14
2023-03-25T03:47:28.403Z,91.25
2023-03-25T03:48:28.402Z,91.25
2023-03-25T03:49:28.459Z,91.55
2023-03-25T03:50:28.486Z,91.25
2023-03-25T03:51:28.435Z,91.35
2023-03-25T03:52:28.527Z,91.55
2023-03-25T03:53:28.502Z,91.86
2023-03-25T03:54:28.388Z,91.97
2023-03-25T03:55:28.463Z,91.55
2023-03-25T03:56:28.501Z,91.66
2023-03-25T03:57:28.390Z,91.70
2023-03-25T03:58:28.567Z,91.08
2023-03-25T03:59:28.490Z,90.63
2023-03-25T04:00:28.220Z,90.53
2023-03-25T04:01:28.216Z,89.91
2023-03-25T04:02:28.363Z,89.81
2023-03-25T04:03:28.325Z,89.60
2023-03-25T04:04:28.193Z,89.91
2023-03-25T04:05:28.168Z,89.70
2023-03-25T04:06:28.150Z,89.60
2023-03-25T04:07:28.132Z,89.50
2023-03-25T04:08:28.130Z,89.70
2023-03-25T04:09:28.155Z,90.12
2023-03-25T04:10:28.109Z,89.50
2023-03-25T04:11:28.110Z,89.50
2023-03-25T04:12:28.137Z,89.29
2023-03-25T04:13:28.070Z,89.19
2023-03-25T04:14:28.082Z,88.95
2023-03-25T04:15:28.073Z,89.15
2023-03-25T04:16:28.050Z,88.95
2023-03-25T04:17:28.026Z,88.84
2023-03-25T04:18:28.013Z,89.36
2023-03-25T04:19:28.024Z,89.46
2023-03-25T04:20:27.983Z,89.15
2023-03-25T04:21:28.000Z,89.29
2023-03-25T04:22:28.000Z,89.25
2023-03-25T04:23:27.959Z,89.09
2023-03-25T04:24:27.952Z,88.95
2023-03-25T04:25:27.960Z,89.15
2023-03-25T04:26:27.941Z,88.74
2023-03-25T04:27:27.999Z,88.43
2023-03-25T04:28:27.898Z,88.84
2023-03-25T04:29:27.895Z,88.64
2023-03-25T04:30:27.947Z,88.64
2023-03-25T04:31:27.944Z,88.64
2023-03-25T04:32:28.059Z,88.84
2023-03-25T04:33:27.955Z,89.46
2023-03-25T04:34:27.850Z,88.95
2023-03-25T04:35:27.872Z,88.53
2023-03-25T04:36:27.811Z,88.74
2023-03-25T04:37:27.814Z,88.43
2023-03-25T04:38:27.792Z,88.43
2023-03-25T04:39:27.798Z,88.53
2023-03-25T04:40:27.780Z,88.23
2023-03-25T04:41:27.834Z,88.33
2023-03-25T04:42:27.751Z,88.23
2023-03-25T04:43:27.748Z,88.12
2023-03-25T04:44:27.714Z,88.53
2023-03-25T04:45:27.725Z,88.53
2023-03-25T04:46:27.724Z,88.33
2023-03-25T04:47:27.746Z,88.43
2023-03-25T04:48:27.691Z,88.64
2023-03-25T04:49:27.676Z,88.47
2023-03-25T04:50:27.684Z,88.23
2023-03-25T04:51:27.930Z,88.37
2023-03-25T04:52:28.106Z,88.37
2023-03-25T04:53:27.746Z,88.47
2023-03-25T04:54:27.688Z,88.68
2023-03-25T04:55:27.619Z,88.89
2023-03-25T04:56:27.625Z,89.09
2023-03-25T04:57:27.620Z,89.40
2023-03-25T04:58:27.576Z,89.70
2023-03-25T04:59:27.696Z,89.91
2023-03-25T05:00:27.532Z,89.91
2023-03-25T05:01:27.561Z,90.12
2023-03-25T05:02:27.603Z,90.32
2023-03-25T05:03:27.520Z,90.32
2023-03-25T05:04:27.538Z,90.42
2023-03-25T05:05:27.490Z,90.67
2023-03-25T05:06:27.467Z,90.78
2023-03-25T05:07:27.466Z,90.98
2023-03-25T05:08:27.457Z,91.29
2023-03-25T05:09:27.453Z,91.49
2023-03-25T05:10:27.429Z,91.70
2023-03-25T05:11:27.417Z,91.91
2023-03-25T05:12:27.427Z,91.70
2023-03-25T05:13:27.396Z,91.91
2023-03-25T05:14:27.404Z,92.01
2023-03-25T05:15:27.364Z,92.01
2023-03-25T05:16:27.412Z,91.70
2023-03-25T05:17:27.402Z,91.91
2023-03-25T05:18:27.344Z,92.01
2023-03-25T05:19:28.258Z,92.21
2023-03-25T05:20:27.316Z,92.52
2023-03-25T05:21:27.294Z,92.63
2023-03-25T05:22:27.312Z,92.52
2023-03-25T05:23:27.292Z,92.73
2023-03-25T05:24:27.292Z,92.83
2023-03-25T05:25:27.248Z,93.04
2023-03-25T05:26:27.254Z,93.14
2023-03-25T05:27:27.240Z,93.35
2023-03-25T05:28:27.238Z,93.24
2023-03-25T05:29:27.248Z,93.24
2023-03-25T05:30:27.204Z,93.24
2023-03-25T05:31:27.185Z,93.35
2023-03-25T05:32:27.216Z,93.55
2023-03-25T05:33:27.171Z,93.55
2023-03-25T05:34:27.167Z,93.44
2023-03-25T05:35:27.192Z,93.55
2023-03-25T05:36:27.157Z,93.55
2023-03-25T05:37:27.124Z,93.44
2023-03-25T05:38:27.123Z,93.55
2023-03-25T05:39:27.218Z,93.55
2023-03-25T05:40:27.148Z,93.86
2023-03-25T05:41:27.079Z,93.86
2023-03-25T05:42:27.102Z,93.86
2023-03-25T05:43:27.070Z,93.86
2023-03-25T05:44:27.052Z,93.76
2023-03-25T05:45:27.074Z,93.44
2023-03-25T05:46:27.093Z,92.93
2023-03-25T05:47:27.026Z,93.14
2023-03-25T05:48:26.993Z,92.83
2023-03-25T05:49:26.994Z,92.63
2023-03-25T05:50:26.987Z,92.42
2023-03-25T05:51:26.987Z,92.32
2023-03-25T05:52:26.952Z,92.21
2023-03-25T05:53:26.952Z,92.21
2023-03-25T05:54:26.952Z,92.32
2023-03-25T05:55:26.918Z,92.01
2023-03-25T05:56:26.925Z,92.01
2023-03-25T05:57:26.893Z,91.55
2023-03-25T05:58:26.911Z,91.66
2023-03-25T05:59:27.555Z,91.45
2023-03-25T06:00:26.888Z,91.76
2023-03-25T06:01:33.403Z,91.76
2023-03-25T06:02:28.288Z,92.07
2023-03-25T06:03:26.999Z,92.27
2023-03-25T06:04:26.868Z,92.27
2023-03-25T06:05:26.846Z,92.27
2023-03-25T06:06:26.798Z,92.48
2023-03-25T06:07:26.786Z,92.38
2023-03-25T06:08:26.799Z,92.27
2023-03-25T06:09:26.803Z,91.97
2023-03-25T06:10:26.774Z,91.76
2023-03-25T06:11:26.743Z,91.45
2023-03-25T06:12:26.747Z,91.45
2023-03-25T06:13:26.721Z,91.55
2023-03-25T06:14:26.733Z,91.55
2023-03-25T06:15:26.710Z,91.25
2023-03-25T06:16:26.759Z,91.35
2023-03-25T06:17:26.726Z,91.55
2023-03-25T06:18:26.667Z,92.07
2023-03-25T06:19:26.675Z,92.17
2023-03-25T06:20:26.683Z,92.89
2023-03-25T06:21:26.623Z,92.79
2023-03-25T06:22:26.635Z,93.30
2023-03-25T06:23:26.634Z,92.89
2023-03-25T06:24:26.607Z,92.99
2023-03-25T06:25:26.622Z,93.10
2023-03-25T06:26:26.582Z,92.99
2023-03-25T06:27:26.558Z,92.79
2023-03-25T06:28:26.570Z,92.58
2023-03-25T06:29:26.547Z,92.48
2023-03-25T06:30:26.559Z,92.27
2023-03-25T06:31:26.809Z,92.27
2023-03-25T06:32:26.587Z,92.07
2023-03-25T06:33:42.910Z,91.66
2023-03-25T06:34:27.499Z,91.86
2023-03-25T06:35:26.505Z,91.76
2023-03-25T06:36:26.461Z,91.76
2023-03-25T06:37:26.450Z,91.45
2023-03-25T06:38:26.451Z,91.45
2023-03-25T06:39:26.792Z,91.45
2023-03-25T06:40:26.473Z,91.35
2023-03-25T06:41:26.426Z,91.55
2023-03-25T06:42:26.419Z,91.76
2023-03-25T06:43:26.918Z,91.97
2023-03-25T06:44:26.391Z,92.27
2023-03-25T06:45:26.370Z,92.48
2023-03-25T06:46:26.437Z,92.27
2023-03-25T06:47:26.395Z,92.58
2023-03-25T06:48:26.369Z,93.10
2023-03-25T06:49:26.313Z,92.99
2023-03-25T06:50:26.321Z,93.51
2023-03-25T06:51:26.796Z,93.71
2023-03-25T06:52:26.367Z,94.12
2023-03-25T06:53:26.598Z,94.54
2023-03-25T06:54:26.275Z,94.99
2023-03-25T06:55:26.251Z,95.20
2023-03-25T06:56:26.248Z,95.61
2023-03-25T06:57:26.230Z,95.81
2023-03-25T06:58:26.248Z,95.92
2023-03-25T06:59:26.433Z,95.92
2023-03-25T07:00:26.200Z,96.22
2023-03-25T07:01:26.446Z,96.68
2023-03-25T07:02:26.246Z,97.15
2023-03-25T07:03:26.184Z,97.19
2023-03-25T07:04:26.186Z,97.30
2023-03-25T07:05:26.246Z,97.50
2023-03-25T07:06:26.156Z,97.61
2023-03-25T07:07:26.138Z,97.61
2023-03-25T07:08:26.147Z,98.02
2023-03-25T07:09:26.118Z,97.91
2023-03-25T07:10:26.129Z,97.40
2023-03-25T07:11:26.087Z,97.40
2023-03-25T07:12:26.092Z,97.50
2023-03-25T07:13:26.059Z,97.30
2023-03-25T07:14:26.054Z,96.68
2023-03-25T07:15:26.070Z,96.27
2023-03-25T07:16:26.115Z,95.40
2023-03-25T07:17:26.055Z,95.61
2023-03-25T07:18:26.053Z,95.30
2023-03-25T07:19:26.377Z,95.61
2023-03-25T07:20:26.361Z,95.40
2023-03-25T07:21:26.010Z,94.89
2023-03-25T07:22:26.067Z,95.09
2023-03-25T07:23:26.039Z,94.99
2023-03-25T07:24:26.074Z,94.89
2023-03-25T07:25:26.070Z,94.89
2023-03-25T07:26:26.124Z,95.30
2023-03-25T07:27:26.069Z,94.07
2023-03-25T07:28:26.080Z,94.48
2023-03-25T07:29:26.036Z,94.48
2023-03-25T07:30:26.006Z,94.07
2023-03-25T07:31:26.193Z,94.17
2023-03-25T07:32:26.067Z,94.02
2023-03-25T07:33:25.886Z,94.12
2023-03-25T07:34:25.827Z,94.02
2023-03-25T07:35:25.848Z,93.40
2023-03-25T07:36:25.825Z,92.99
2023-03-25T07:37:25.793Z,92.99
2023-03-25T07:38:25.807Z,92.85
2023-03-25T07:39:25.771Z,92.13
2023-03-25T07:40:25.765Z,92.23
2023-03-25T07:41:25.753Z,92.23
2023-03-25T07:42:25.748Z,92.33
2023-03-25T07:43:25.769Z,91.82
2023-03-25T07:44:25.763Z,91.31
2023-03-25T07:45:25.811Z,91.20
2023-03-25T07:46:25.745Z,91.61
2023-03-25T07:47:25.741Z,90.69
2023-03-25T07:48:25.892Z,91.00
2023-03-25T07:49:25.646Z,91.10
2023-03-25T07:50:26.155Z,90.59
2023-03-25T07:51:25.632Z,90.24
2023-03-25T07:52:25.660Z,90.24
2023-03-25T07:53:25.690Z,89.62
2023-03-25T07:54:25.592Z,90.24
2023-03-25T07:55:25.585Z,90.34
2023-03-25T07:56:25.581Z,89.93
2023-03-25T07:57:25.601Z,89.62
2023-03-25T07:58:26.415Z,89.52
2023-03-25T07:59:26.196Z,89.69
2023-03-25T08:00:25.549Z,89.78
2023-03-25T08:01:25.555Z,89.37
2023-03-25T08:02:25.608Z,89.07
2023-03-25T08:03:25.647Z,89.33
2023-03-25T08:04:25.534Z,88.41
2023-03-25T08:05:25.487Z,87.79
2023-03-25T08:06:25.510Z,87.59
2023-03-25T08:07:25.462Z,87.59
2023-03-25T08:08:25.777Z,88.00
2023-03-25T08:09:25.432Z,88.10
2023-03-25T08:10:25.435Z,88.06
2023-03-25T08:11:25.430Z,87.34
2023-03-25T08:12:25.414Z,87.45
2023-03-25T08:13:25.396Z,87.85
2023-03-25T08:14:25.388Z,87.49
2023-03-25T08:15:25.358Z,87.49
2023-03-25T08:16:25.422Z,87.59
2023-03-25T08:17:25.386Z,87.49
2023-03-25T08:18:25.345Z,86.98
2023-03-25T08:19:25.334Z,87.18
2023-03-25T08:20:25.310Z,86.98
2023-03-25T08:21:25.301Z,87.28
2023-03-25T08:22:25.309Z,87.18
2023-03-25T08:23:25.261Z,87.28
2023-03-25T08:24:25.292Z,87.28
2023-03-25T08:25:25.240Z,87.28
2023-03-25T08:26:25.244Z,86.66
2023-03-25T08:27:25.215Z,86.46
2023-03-25T08:28:25.232Z,86.46
2023-03-25T08:29:25.247Z,86.36
2023-03-25T08:30:25.210Z,86.83
2023-03-25T08:31:25.208Z,86.11
2023-03-25T08:32:25.214Z,85.50
2023-03-25T08:33:25.173Z,85.60
2023-03-25T08:34:28.647Z,85.64
2023-03-25T08:35:25.217Z,86.25
2023-03-25T08:36:25.148Z,86.05
2023-03-25T08:37:25.132Z,86.15
2023-03-25T08:38:25.108Z,85.54
2023-03-25T08:39:25.083Z,84.72
2023-03-25T08:40:25.080Z,84.82
2023-03-25T08:41:25.084Z,84.72
2023-03-25T08:42:25.056Z,84.72
2023-03-25T08:43:25.048Z,84.72
2023-03-25T08:44:25.095Z,85.13
2023-03-25T08:45:25.033Z,85.23
2023-03-25T08:46:25.090Z,85.95
2023-03-25T08:47:25.061Z,85.44
2023-03-25T08:48:25.636Z,85.44
2023-03-25T08:49:24.987Z,85.74
2023-03-25T08:50:24.989Z,85.50
2023-03-25T08:51:24.977Z,84.99
2023-03-25T08:52:24.961Z,84.78
2023-03-25T08:53:25.901Z,85.39
2023-03-25T08:54:24.935Z,84.58
2023-03-25T08:55:24.910Z,83.92
2023-03-25T08:56:24.919Z,83.41
2023-03-25T08:57:24.906Z,83.82
2023-03-25T08:58:24.886Z,83.47
2023-03-25T08:59:24.890Z,82.45
2023-03-25T09:00:24.869Z,82.90
2023-03-25T09:01:24.859Z,83.51
2023-03-25T09:02:24.836Z,83.98
2023-03-25T09:03:24.853Z,83.27
2023-03-25T09:04:24.820Z,84.09
2023-03-25T09:05:24.830Z,82.82
2023-03-25T09:06:24.810Z,82.21
2023-03-25T09:07:24.870Z,81.65
2023-03-25T09:08:24.919Z,80.74
2023-03-25T09:09:24.738Z,80.02
2023-03-25T09:10:24.820Z,79.30
2023-03-25T09:11:35.979Z,79.54
2023-03-25T09:12:25.767Z,80.57
2023-03-25T09:13:24.699Z,80.51
2023-03-25T09:14:24.710Z,81.43
2023-03-25T09:15:24.725Z,81.32
2023-03-25T09:16:24.745Z,80.30
2023-03-25T09:17:24.735Z,80.30
2023-03-25T09:18:24.672Z,81.22
2023-03-25T09:19:24.651Z,80.60
2023-03-25T09:20:24.698Z,81.32
2023-03-25T09:21:24.638Z,80.91
2023-03-25T09:22:24.764Z,80.77
2023-03-25T09:23:24.659Z,80.26
2023-03-25T09:24:24.597Z,80.88
2023-03-25T09:25:24.628Z,80.36
2023-03-25T09:26:24.549Z,79.96
2023-03-25T09:27:24.574Z,79.75
2023-03-25T09:28:24.541Z,80.30
2023-03-25T09:29:24.580Z,80.19
2023-03-25T09:30:24.573Z,79.99
2023-03-25T09:31:24.600Z,80.40
2023-03-25T09:32:24.519Z,80.74
2023-03-25T09:33:24.498Z,81.36
2023-03-25T09:34:24.525Z,81.26
2023-03-25T09:35:24.492Z,81.26
2023-03-25T09:36:24.459Z,81.87
2023-03-25T09:37:24.452Z,81.87
2023-03-25T09:38:24.457Z,82.14
2023-03-25T09:39:24.424Z,82.55
2023-03-25T09:40:24.506Z,81.84
2023-03-25T09:41:24.406Z,81.94
2023-03-25T09:42:24.388Z,81.63
2023-03-25T09:43:24.434Z,81.94
2023-03-25T09:44:24.416Z,81.01
2023-03-25T09:45:24.351Z,81.32
2023-03-25T09:46:24.437Z,81.84
2023-03-25T09:47:24.375Z,81.63
2023-03-25T09:48:24.341Z,82.55
2023-03-25T09:49:24.323Z,82.96
2023-03-25T09:50:24.322Z,82.86
2023-03-25T09:51:24.320Z,82.96
2023-03-25T09:52:24.347Z,82.55
2023-03-25T09:53:24.277Z,82.45
2023-03-25T09:54:24.269Z,81.73
2023-03-25T09:55:24.243Z,81.73
2023-03-25T09:56:24.564Z,81.87
2023-03-25T09:57:24.562Z,82.14
2023-03-25T09:58:24.206Z,82.35
2023-03-25T09:59:24.234Z,81.84
2023-03-25T10:00:24.355Z,81.32
2023-03-25T10:01:28.170Z,81.52
2023-03-25T10:02:24.317Z,82.21
2023-03-25T10:03:24.237Z,82.68
2023-03-25T10:04:24.232Z,81.31
2023-03-25T10:05:24.244Z,80.66
2023-03-25T10:06:24.230Z,79.19
2023-03-25T10:07:24.260Z,79.23
2023-03-25T10:08:24.294Z,80.35
2023-03-25T10:09:24.245Z,80.05
2023-03-25T10:10:24.516Z,81.03
2023-03-25T10:11:24.298Z,79.50
2023-03-25T10:12:24.302Z,78.52
2023-03-25T10:13:24.362Z,80.29
2023-03-25T10:14:24.342Z,81.76
2023-03-25T10:15:24.370Z,82.27
2023-03-25T10:16:24.370Z,82.51
2023-03-25T10:17:24.035Z,82.71
2023-03-25T10:18:24.000Z,83.58
2023-03-25T10:19:24.031Z,84.60
2023-03-25T10:20:23.971Z,84.19
2023-03-25T10:21:23.977Z,84.19
2023-03-25T10:22:24.002Z,84.50
2023-03-25T10:23:23.998Z,84.19
2023-03-25T10:24:23.930Z,83.78
2023-03-25T10:25:23.963Z,84.09
2023-03-25T10:26:24.327Z,84.19
2023-03-25T10:27:23.924Z,84.50
2023-03-25T10:28:23.906Z,84.39
2023-03-25T10:29:23.881Z,84.56
2023-03-25T10:30:23.843Z,85.58
2023-03-25T10:31:23.902Z,84.11
2023-03-25T10:32:23.834Z,83.70
2023-03-25T10:33:23.816Z,83.39
2023-03-25T10:34:23.803Z,82.68
2023-03-25T10:35:23.846Z,82.68
2023-03-25T10:36:23.802Z,82.64
2023-03-25T10:37:23.916Z,82.13
2023-03-25T10:38:23.844Z,81.58
2023-03-25T10:39:23.764Z,80.66
2023-03-25T10:40:23.891Z,81.27
2023-03-25T10:41:23.755Z,80.90
2023-03-25T10:42:23.718Z,80.90
2023-03-25T10:43:23.756Z,81.01
2023-03-25T10:44:23.795Z,81.76
2023-03-25T10:45:23.722Z,82.27
2023-03-25T10:46:23.762Z,82.07
2023-03-25T10:47:23.721Z,82.21
2023-03-25T10:48:23.696Z,82.62
2023-03-25T10:49:23.639Z,83.03
2023-03-25T10:50:23.624Z,83.54
2023-03-25T10:51:23.632Z,84.80
2023-03-25T10:52:23.605Z,85.22
2023-03-25T10:53:23.603Z,86.14
2023-03-25T10:54:23.600Z,86.44
2023-03-25T10:55:23.587Z,86.65
2023-03-25T10:56:23.547Z,86.96
2023-03-25T10:57:23.575Z,86.75
2023-03-25T10:58:23.536Z,86.65
2023-03-25T10:59:23.558Z,85.58
2023-03-25T11:00:23.536Z,84.77
2023-03-25T11:01:23.614Z,85.07
2023-03-25T11:02:23.572Z,84.97
2023-03-25T11:03:23.641Z,85.07
2023-03-25T11:04:23.519Z,85.38
2023-03-25T11:05:23.470Z,85.17
2023-03-25T11:06:23.453Z,85.17
2023-03-25T11:07:23.487Z,85.24
2023-03-25T11:08:25.151Z,84.52
2023-03-25T11:09:23.435Z,84.77
2023-03-25T11:10:23.463Z,84.97
2023-03-25T11:11:23.406Z,85.28
2023-03-25T11:12:33.295Z,84.97
2023-03-25T11:13:24.378Z,85.28
2023-03-25T11:14:23.365Z,84.97
2023-03-25T11:15:23.419Z,85.28
2023-03-25T11:16:23.346Z,85.50
2023-03-25T11:17:23.981Z,84.34
2023-03-25T11:18:23.325Z,83.32
2023-03-25T11:19:23.351Z,82.60
2023-03-25T11:20:23.364Z,83.01
2023-03-25T11:21:23.280Z,83.73
2023-03-25T11:22:23.268Z,83.79
2023-03-25T11:23:23.286Z,83.04
2023-03-25T11:24:23.273Z,82.53
2023-03-25T11:25:23.289Z,81.91
2023-03-25T11:26:23.352Z,82.42
2023-03-25T11:27:23.310Z,81.81
2023-03-25T11:28:23.233Z,82.63
2023-03-25T11:29:23.220Z,82.83
2023-03-25T11:30:23.279Z,82.28
2023-03-25T11:31:23.217Z,80.85
2023-03-25T11:32:23.184Z,80.75
2023-03-25T11:33:23.168Z,79.83
2023-03-25T11:34:23.185Z,79.97
2023-03-25T11:35:23.294Z,80.38
2023-03-25T11:36:23.163Z,81.30
2023-03-25T11:37:23.121Z,80.58
2023-03-25T11:38:23.096Z,80.07
2023-03-25T11:39:23.093Z,79.66
2023-03-25T11:40:23.084Z,80.89
2023-03-25T11:41:23.103Z,80.69
2023-03-25T11:42:23.053Z,81.03
2023-03-25T11:43:23.071Z,81.44
2023-03-25T11:44:23.096Z,81.95
2023-03-25T11:45:23.084Z,81.95
2023-03-25T11:46:23.044Z,81.88
2023-03-25T11:47:22.993Z,81.68
2023-03-25T11:48:22.981Z,82.43
2023-03-25T11:49:23.012Z,82.54
2023-03-25T11:50:22.996Z,82.84
2023-03-25T11:51:22.989Z,83.05
2023-03-25T11:52:22.971Z,83.36
2023-03-25T11:53:23.236Z,83.25
2023-03-25T11:54:23.669Z,83.97
2023-03-25T11:55:22.936Z,84.99
2023-03-25T11:56:22.967Z,85.40
2023-03-25T11:57:23.598Z,84.89
2023-03-25T11:58:22.879Z,84.17
2023-03-25T11:59:22.869Z,83.87
2023-03-25T12:00:22.894Z,83.46
2023-03-25T12:01:22.864Z,83.66
2023-03-25T12:02:22.945Z,83.62
2023-03-25T12:03:23.121Z,83.38
2023-03-25T12:04:22.826Z,82.97
2023-03-25T12:05:22.841Z,82.53
2023-03-25T12:06:22.864Z,80.28
2023-03-25T12:07:22.828Z,80.34
2023-03-25T12:08:29.934Z,80.20
2023-03-25T12:09:25.451Z,79.49
2023-03-25T12:10:22.740Z,79.35
2023-03-25T12:11:22.719Z,78.23
2023-03-25T12:12:22.791Z,78.88
2023-03-25T12:13:22.796Z,79.28
2023-03-25T12:14:22.711Z,79.93
2023-03-25T12:15:22.688Z,79.69
2023-03-25T12:16:22.775Z,79.52
2023-03-25T12:17:23.405Z,79.22
2023-03-25T12:18:22.652Z,79.52
2023-03-25T12:19:22.671Z,79.63
2023-03-25T12:20:22.643Z,80.41
2023-03-25T12:21:22.623Z,80.07
2023-03-25T12:22:22.628Z,79.49
2023-03-25T12:23:22.603Z,79.80
2023-03-25T12:24:22.569Z,79.49
2023-03-25T12:25:22.612Z,79.69
2023-03-25T12:26:22.546Z,79.90
2023-03-25T12:27:22.582Z,79.59
2023-03-25T12:28:22.540Z,79.93
2023-03-25T12:29:22.526Z,80.79
2023-03-25T12:30:22.554Z,82.12
2023-03-25T12:31:22.544Z,82.83
2023-03-25T12:32:22.551Z,83.93
2023-03-25T12:33:22.517Z,86.69
2023-03-25T12:34:22.473Z,88.26
2023-03-25T12:35:22.512Z,87.29
2023-03-25T12:36:22.452Z,89.23
2023-03-25T12:37:22.444Z,90.39
2023-03-25T12:38:22.435Z,89.21
2023-03-25T12:39:32.249Z,90.64
2023-03-25T12:40:23.409Z,92.18
2023-03-25T12:41:22.434Z,92.38
2023-03-25T12:42:22.416Z,91.77
2023-03-25T12:43:22.381Z,92.28
2023-03-25T12:44:22.419Z,91.97
2023-03-25T12:45:23.959Z,93.10
2023-03-25T12:46:22.373Z,92.74
2023-03-25T12:47:22.343Z,92.83
2023-03-25T12:48:22.351Z,93.04
2023-03-25T12:49:22.333Z,93.45
2023-03-25T12:50:22.782Z,93.86
2023-03-25T12:51:22.334Z,94.48
2023-03-25T12:52:22.272Z,93.66